Association Sportive et Culturelle de l' Aéroport de Blagnac

Section Vol Moteur

Bienvenue sur le site ASCAB Vol Moteur

LFBO TOULOUSE-BLAGNAC

METAR :
2023/02/05 23:30 LFBO 052330Z AUTO 31009KT 9999 FEW046 OVC060 07/02 Q1035

TAF :
2023/02/05 18:43 TAF LFBO 051700Z 0518/0624 28010KT 9999 BKN040 BECMG 0602/0604 VRB03KT CAVOK PROB30 TEMPO 0605/0611 BKN013